createdAt,value
2023-03-22T00:03:53.729Z,31.02
2023-03-22T00:08:07.527Z,31.77
2023-03-22T00:12:19.965Z,32.63
2023-03-22T00:16:35.028Z,32.95
2023-03-22T00:20:52.540Z,32.75
2023-03-22T00:25:05.957Z,33.83
2023-03-22T00:29:19.890Z,31.70
2023-03-22T00:33:36.907Z,31.83
2023-03-22T00:37:51.076Z,32.00
2023-03-22T00:42:07.828Z,32.75
2023-03-22T00:46:21.351Z,33.15
2023-03-22T00:50:33.938Z,35.95
2023-03-22T00:54:46.441Z,37.15
2023-03-22T00:58:59.208Z,33.33
2023-03-22T01:03:17.167Z,33.83
2023-03-22T01:07:29.674Z,35.80
2023-03-22T01:11:43.619Z,34.20
2023-03-22T01:15:56.310Z,35.30
2023-03-22T01:20:09.781Z,33.25
2023-03-22T01:24:22.344Z,31.48
2023-03-22T01:28:35.885Z,35.40
2023-03-22T01:32:48.362Z,35.75
2023-03-22T01:37:05.164Z,35.83
2023-03-22T01:41:19.220Z,37.08
2023-03-22T01:45:51.798Z,35.67
2023-03-22T01:50:10.016Z,37.28
2023-03-22T01:54:38.774Z,37.92
2023-03-22T01:59:14.520Z,32.03
2023-03-22T02:04:15.798Z,31.73
2023-03-22T02:08:29.589Z,28.23
2023-03-22T02:13:24.709Z,27.25
2023-03-22T02:18:22.285Z,24.25
2023-03-22T02:23:10.037Z,21.92
2023-03-22T02:27:56.243Z,19.50
2023-03-22T02:32:29.806Z,19.85
2023-03-22T02:37:12.186Z,19.98
2023-03-22T02:41:48.390Z,19.27
2023-03-22T02:46:10.307Z,18.73
2023-03-22T02:50:38.503Z,17.58
2023-03-22T02:55:17.838Z,17.55
2023-03-22T02:59:33.398Z,18.13
2023-03-22T03:03:53.080Z,17.63
2023-03-22T03:08:11.389Z,16.73
2023-03-22T03:12:28.437Z,15.73
2023-03-22T03:16:42.254Z,16.60
2023-03-22T03:21:17.486Z,15.80
2023-03-22T03:26:03.080Z,16.48
2023-03-22T03:30:34.272Z,15.70
2023-03-22T03:34:55.741Z,15.13
2023-03-22T03:39:17.269Z,15.60
2023-03-22T03:43:32.714Z,15.23
2023-03-22T03:47:55.766Z,15.20
2023-03-22T03:52:08.419Z,15.27
2023-03-22T03:56:20.826Z,13.77
2023-03-22T04:00:37.615Z,13.25
2023-03-22T04:05:16.439Z,11.93
2023-03-22T04:09:35.209Z,12.55
2023-03-22T04:14:12.003Z,12.85
2023-03-22T04:18:24.778Z,12.52
2023-03-22T04:22:41.240Z,13.30
2023-03-22T04:26:53.811Z,11.65
2023-03-22T04:31:11.258Z,12.68
2023-03-22T04:35:37.150Z,13.63
2023-03-22T04:39:49.677Z,13.70
2023-03-22T04:44:40.586Z,14.00
2023-03-22T04:48:53.196Z,13.60
2023-03-22T04:53:07.623Z,13.85
2023-03-22T04:57:20.198Z,13.07
2023-03-22T05:01:35.641Z,11.23
2023-03-22T05:05:58.453Z,11.13
2023-03-22T05:14:29.372Z,10.50
2023-03-22T05:18:48.446Z,10.35
2023-03-22T05:23:03.013Z,10.23
2023-03-22T05:27:17.026Z,8.98
2023-03-22T05:31:29.732Z,9.82
2023-03-22T05:35:46.387Z,9.50
2023-03-22T05:39:59.023Z,11.48
2023-03-22T05:44:20.575Z,8.85
2023-03-22T05:48:54.852Z,9.43
2023-03-22T05:53:09.064Z,7.97
2023-03-22T05:57:43.898Z,7.15
2023-03-22T06:01:56.430Z,8.15
2023-03-22T06:06:11.115Z,7.00
2023-03-22T06:10:33.369Z,8.60
2023-03-22T06:14:46.110Z,7.32
2023-03-22T06:19:33.466Z,7.40
2023-03-22T06:23:49.090Z,9.23
2023-03-22T06:28:02.031Z,8.23
2023-03-22T06:32:15.613Z,7.68
2023-03-22T06:36:28.086Z,7.28
2023-03-22T06:40:53.777Z,8.57
2023-03-22T06:45:08.243Z,7.85
2023-03-22T06:49:24.303Z,7.20
2023-03-22T06:53:38.906Z,7.03
2023-03-22T06:57:51.496Z,6.13
2023-03-22T07:02:04.506Z,11.02
2023-03-22T07:06:17.643Z,6.40
2023-03-22T07:10:34.059Z,6.55
2023-03-22T07:14:46.678Z,6.43
2023-03-22T07:19:12.352Z,8.63
2023-03-22T07:23:24.882Z,6.50
2023-03-22T07:27:38.487Z,6.95
2023-03-22T07:31:51.086Z,6.97
2023-03-22T07:36:24.010Z,7.72
2023-03-22T07:40:37.764Z,8.98
2023-03-22T07:44:51.676Z,8.80
2023-03-22T07:49:04.316Z,10.32
2023-03-22T07:53:49.101Z,11.10
2023-03-22T07:58:02.134Z,10.88
2023-03-22T08:02:14.799Z,13.40
2023-03-22T08:06:34.233Z,15.68
2023-03-22T08:10:51.321Z,15.38
2023-03-22T08:15:04.095Z,13.82
2023-03-22T08:19:17.561Z,15.43
2023-03-22T08:23:40.956Z,13.75
2023-03-22T08:28:16.124Z,14.60
2023-03-22T08:32:29.179Z,15.80
2023-03-22T08:36:43.146Z,16.00
2023-03-22T08:40:55.680Z,16.40
2023-03-22T08:45:11.006Z,20.10
2023-03-22T08:49:32.993Z,18.75
2023-03-22T08:53:52.560Z,15.48
2023-03-22T08:58:25.018Z,17.70
2023-03-22T09:03:00.000Z,19.20
2023-03-22T09:07:13.036Z,18.05
2023-03-22T09:11:29.557Z,17.85
2023-03-22T09:15:42.071Z,18.75
2023-03-22T09:20:12.157Z,18.80
2023-03-22T09:24:27.290Z,22.48
2023-03-22T09:28:42.639Z,18.60
2023-03-22T09:32:55.412Z,17.23
2023-03-22T09:37:07.948Z,18.45
2023-03-22T09:41:57.732Z,17.85
2023-03-22T09:46:26.207Z,17.02
2023-03-22T09:50:47.058Z,17.42
2023-03-22T09:54:59.745Z,16.33
2023-03-22T09:59:30.098Z,15.63
2023-03-22T10:04:26.927Z,17.02
2023-03-22T10:08:47.179Z,18.13
2023-03-22T10:13:28.320Z,13.55
2023-03-22T10:17:47.909Z,15.27
2023-03-22T10:22:05.023Z,15.98
2023-03-22T10:26:34.941Z,14.05
2023-03-22T10:30:54.776Z,10.85
2023-03-22T10:35:08.894Z,11.35
2023-03-22T10:39:39.850Z,13.30
2023-03-22T10:44:06.762Z,12.13
2023-03-22T10:48:30.103Z,12.63
2023-03-22T10:53:16.823Z,12.50
2023-03-22T10:57:30.328Z,10.50
2023-03-22T11:01:47.372Z,12.77
2023-03-22T11:06:17.681Z,12.45
2023-03-22T11:10:35.018Z,12.45
2023-03-22T11:14:47.633Z,8.63
2023-03-22T11:19:03.817Z,12.00
2023-03-22T11:23:18.251Z,8.38
2023-03-22T11:27:37.320Z,12.25
2023-03-22T11:31:57.350Z,10.05
2023-03-22T11:36:19.188Z,9.65
2023-03-22T11:40:36.473Z,9.25
2023-03-22T11:44:49.680Z,10.02
2023-03-22T11:49:08.011Z,10.40
2023-03-22T11:53:25.191Z,10.32
2023-03-22T11:57:38.398Z,9.43
2023-03-22T12:02:29.365Z,8.95
2023-03-22T12:06:43.384Z,8.07
2023-03-22T12:11:06.589Z,8.80
2023-03-22T12:15:26.247Z,12.23
2023-03-22T12:20:07.298Z,6.75
2023-03-22T12:24:29.446Z,6.07
2023-03-22T12:29:07.096Z,7.93
2023-03-22T12:33:32.643Z,5.53
2023-03-22T12:37:51.956Z,5.18
2023-03-22T12:42:27.358Z,4.78
2023-03-22T12:47:27.983Z,7.65
2023-03-22T12:51:42.921Z,10.75
2023-03-22T12:55:56.412Z,5.80
2023-03-22T13:00:17.901Z,7.97
2023-03-22T13:04:51.617Z,4.43
2023-03-22T13:09:29.051Z,5.75
2023-03-22T13:13:45.262Z,5.82
2023-03-22T13:17:59.244Z,2.85
2023-03-22T13:22:28.185Z,4.22
2023-03-22T13:26:48.452Z,3.03
2023-03-22T13:31:01.801Z,4.47
2023-03-22T13:35:23.785Z,4.28
2023-03-22T13:39:41.795Z,3.92
2023-03-22T13:44:00.251Z,8.80
2023-03-22T13:48:30.364Z,4.73
2023-03-22T13:52:57.560Z,5.45
2023-03-22T13:57:49.441Z,10.35
2023-03-22T14:02:07.836Z,4.75
2023-03-22T14:06:25.296Z,5.57
2023-03-22T14:10:43.888Z,8.73
2023-03-22T14:15:05.058Z,8.10
2023-03-22T14:19:22.461Z,5.75
